Time;durP1;ratioP1;P1;durP2;ratioP2;P2;SDS_P1;SDS_P2;PMS_P1;PMS_P2;Temp;Humidity;BMP_temperature;BMP_pressure;BME280_temperature;BME280_humidity;BME280_pressure;Samples;Min_cycle;Max_cycle;Signal;HPM_P1;HPM_P2
2023/05/14 00:00:19;;;;;;;12.33;11.03;;;;;21.40;100773.00;;;;2083371;28;20719;-51
2023/05/14 00:01:20;;;;;;;12.43;11.20;;;;;21.40;100769.00;;;;2078925;28;20568;-50
2023/05/14 00:02:20;;;;;;;12.30;11.10;;;;;21.40;100769.00;;;;2068052;28;20225;-51
2023/05/14 00:03:20;;;;;;;10.43;9.50;;;;;21.40;100773.00;;;;2078034;28;20769;-50
2023/05/14 00:04:21;;;;;;;11.40;10.17;;;;;21.40;100765.00;;;;2077280;28;20994;-50
2023/05/14 00:05:21;;;;;;;12.00;10.73;;;;;21.40;100762.00;;;;2079149;28;20987;-51
2023/05/14 00:06:22;;;;;;;11.00;10.00;;;;;21.40;100765.00;;;;2074231;28;20958;-50
2023/05/14 00:07:22;;;;;;;11.13;9.90;;;;;21.40;100764.00;;;;2065683;28;20206;-51
2023/05/14 00:08:22;;;;;;;11.20;10.20;;;;;21.40;100766.00;;;;2078026;28;20213;-50
2023/05/14 00:09:23;;;;;;;10.50;9.47;;;;;21.40;100758.00;;;;2076917;28;20216;-50
2023/05/14 00:10:23;;;;;;;12.40;9.97;;;;;21.40;100761.00;;;;2066025;28;20209;-51
2023/05/14 00:11:23;;;;;;;10.43;9.33;;;;;21.40;100758.00;;;;2076982;28;20206;-49
2023/05/14 00:12:25;;;;;;;11.20;10.20;;;;;21.40;100757.00;;;;2068039;28;20236;-50
2023/05/14 00:13:25;;;;;;;10.80;9.88;;;;;21.40;100748.00;;;;2076749;28;20284;-51
2023/05/14 00:14:25;;;;;;;11.60;10.50;;;;;21.40;100761.00;;;;2078143;28;20778;-51
2023/05/14 00:15:26;;;;;;;11.50;10.40;;;;;21.40;100745.00;;;;2074831;28;20664;-51
2023/05/14 00:16:26;;;;;;;10.67;9.70;;;;;21.40;100747.00;;;;2076889;28;20228;-51
2023/05/14 00:17:27;;;;;;;10.07;9.10;;;;;21.40;100752.00;;;;2068231;28;20217;-50
2023/05/14 00:18:27;;;;;;;11.37;10.27;;;;;21.40;100754.00;;;;2078411;28;20228;-49
2023/05/14 00:19:27;;;;;;;12.43;11.23;;;;;21.40;100756.00;;;;2080858;28;20217;-50
2023/05/14 00:20:28;;;;;;;11.80;9.67;;;;;21.40;100749.00;;;;2077836;28;20217;-51
2023/05/14 00:21:28;;;;;;;10.50;9.50;;;;;21.40;100747.00;;;;2078115;28;20217;-51
2023/05/14 00:22:28;;;;;;;10.07;9.07;;;;;21.20;100750.00;;;;2068242;28;20685;-51
2023/05/14 00:23:29;;;;;;;11.23;10.03;;;;;21.40;100745.00;;;;2076441;28;20214;-49
2023/05/14 00:24:29;;;;;;;10.00;9.10;;;;;21.40;100756.00;;;;2077946;28;20297;-50
2023/05/14 00:25:29;;;;;;;9.80;8.90;;;;;21.40;100750.00;;;;2072516;28;20649;-51
2023/05/14 00:26:30;;;;;;;9.73;8.90;;;;;21.40;100749.00;;;;2073220;28;20214;-51
2023/05/14 00:27:30;;;;;;;9.97;8.97;;;;;21.40;100755.00;;;;2065928;28;20305;-50
2023/05/14 00:28:30;;;;;;;10.47;9.47;;;;;21.40;100752.00;;;;2077725;28;20973;-51
2023/05/14 00:29:31;;;;;;;10.23;9.23;;;;;21.40;100742.00;;;;2077706;28;20678;-49
2023/05/14 00:30:31;;;;;;;10.40;9.40;;;;;21.40;100747.00;;;;2075591;28;20730;-50
2023/05/14 00:31:32;;;;;;;10.03;9.03;;;;;21.40;100745.00;;;;2076924;28;20255;-51
2023/05/14 00:32:32;;;;;;;9.90;9.00;;;;;21.40;100748.00;;;;2062950;28;20229;-51
2023/05/14 00:33:32;;;;;;;10.67;9.67;;;;;21.30;100741.00;;;;2077844;28;20236;-51
2023/05/14 00:34:33;;;;;;;9.63;8.73;;;;;21.40;100743.00;;;;2076984;28;20267;-50
2023/05/14 00:35:34;;;;;;;9.30;8.50;;;;;21.40;100735.00;;;;2076888;28;20248;-50
2023/05/14 00:36:35;;;;;;;9.15;8.30;;;;;21.20;100748.00;;;;2068026;28;21427;-50
2023/05/14 00:37:36;;;;;;;9.37;8.57;;;;;21.40;100742.00;;;;2076653;28;20225;-51
2023/05/14 00:38:36;;;;;;;9.95;8.95;;;;;21.40;100737.00;;;;2077582;28;20225;-51
2023/05/14 00:39:36;;;;;;;9.87;8.93;;;;;21.30;100744.00;;;;2076402;28;20240;-51
2023/05/14 00:40:37;;;;;;;9.03;8.23;;;;;21.30;100736.00;;;;2077411;28;20214;-51
2023/05/14 00:41:37;;;;;;;9.87;8.90;;;;;21.40;100732.00;;;;2062366;28;20628;-50
2023/05/14 00:42:40;;;;;;;10.40;9.40;;;;;21.40;100739.00;;;;2072765;28;20694;-52
2023/05/14 00:43:40;;;;;;;10.00;8.70;;;;;21.30;100735.00;;;;2077120;28;20565;-50
2023/05/14 00:44:41;;;;;;;9.60;8.70;;;;;21.30;100731.00;;;;2076413;28;20304;-50
2023/05/14 00:45:41;;;;;;;9.80;8.90;;;;;21.30;100740.00;;;;2077630;28;20213;-50
2023/05/14 00:46:42;;;;;;;9.30;8.40;;;;;21.40;100734.00;;;;2068624;28;20228;-50
2023/05/14 00:47:43;;;;;;;8.80;7.95;;;;;21.30;100721.00;;;;2071102;28;20245;-50
2023/05/14 00:48:43;;;;;;;9.10;8.30;;;;;21.40;100733.00;;;;2073788;28;20232;-51
2023/05/14 00:49:44;;;;;;;10.23;8.53;;;;;21.30;100721.00;;;;2075818;28;20836;-50
2023/05/14 00:50:44;;;;;;;9.10;8.20;;;;;21.30;100731.00;;;;2073912;28;20235;-50
2023/05/14 00:51:45;;;;;;;8.23;7.53;;;;;21.40;100733.00;;;;2050915;28;20555;-50
2023/05/14 00:52:46;;;;;;;8.90;8.10;;;;;21.30;100733.00;;;;2061938;28;20233;-50
2023/05/14 00:53:46;;;;;;;10.17;9.17;;;;;21.30;100729.00;;;;2076577;28;20233;-50
2023/05/14 00:54:47;;;;;;;8.90;8.00;;;;;21.40;100729.00;;;;2084463;28;20213;-50
2023/05/14 00:55:48;;;;;;;9.70;8.70;;;;;21.30;100728.00;;;;2079026;28;20221;-50
2023/05/14 00:56:48;;;;;;;8.85;8.05;;;;;21.40;100730.00;;;;2066291;28;20214;-50
2023/05/14 00:57:49;;;;;;;9.10;8.30;;;;;21.40;100734.00;;;;2068849;28;20222;-50
2023/05/14 00:58:49;;;;;;;9.23;7.63;;;;;21.30;100728.00;;;;2068205;28;20222;-50
2023/05/14 00:59:50;;;;;;;8.90;8.10;;;;;21.30;100728.00;;;;2075001;28;20633;-50
2023/05/14 01:00:50;;;;;;;9.30;8.43;;;;;21.30;100735.00;;;;2076829;28;20256;-51
2023/05/14 01:01:51;;;;;;;8.90;8.10;;;;;21.30;100726.00;;;;2061143;28;20289;-50
2023/05/14 01:02:51;;;;;;;8.37;7.67;;;;;21.30;100725.00;;;;2069464;28;20570;-50
2023/05/14 01:03:53;;;;;;;8.07;7.37;;;;;21.30;100727.00;;;;2072105;28;20629;-50
2023/05/14 01:04:53;;;;;;;9.48;8.10;;;;;21.30;100724.00;;;;2075571;28;20209;-50
2023/05/14 01:06:11;;;;;;;8.73;7.90;;;;;21.30;100721.00;;;;2074550;28;20951;-50
2023/05/14 01:07:11;;;;;;;8.18;7.43;;;;;21.30;100715.00;;;;2048676;28;20221;-50
2023/05/14 01:08:17;;;;;;;8.37;7.70;;;;;21.30;100716.00;;;;2088989;28;20213;-50
2023/05/14 01:09:25;;;;;;;8.40;7.60;;;;;21.30;100712.00;;;;2079598;28;20640;-51
2023/05/14 01:10:26;;;;;;;9.15;8.25;;;;;21.30;100720.00;;;;2073782;28;20209;-50
2023/05/14 01:11:32;;;;;;;8.10;7.40;;;;;21.30;100725.00;;;;2077022;28;20209;-50
2023/05/14 01:13:05;;;;;;;8.98;8.18;;;;;21.30;100720.00;;;;2071866;28;20249;-50
2023/05/14 01:14:43;;;;;;;8.93;8.13;;;;;21.30;100710.00;;;;2069337;28;20983;-50
2023/05/14 01:15:44;;;;;;;8.75;8.00;;;;;21.30;100713.00;;;;2055942;28;20656;-50
2023/05/14 01:16:44;;;;;;;7.70;7.10;;;;;21.30;100720.00;;;;2059320;28;20220;-51
2023/05/14 01:17:50;;;;;;;8.50;7.70;;;;;21.30;100716.00;;;;2067813;28;20655;-50
2023/05/14 01:18:51;;;;;;;8.73;7.88;;;;;21.30;100717.00;;;;2076014;28;20220;-50
2023/05/14 01:19:51;;;;;;;9.70;7.30;;;;;21.30;100718.00;;;;2059171;28;20215;-50
2023/05/14 01:20:52;;;;;;;8.30;7.30;;;;;21.30;100713.00;;;;2059841;28;20336;-50
2023/05/14 01:21:53;;;;;;;8.93;8.13;;;;;21.30;100708.00;;;;2065334;28;20934;-51
2023/05/14 01:22:53;;;;;;;8.10;7.30;;;;;21.30;100712.00;;;;2076121;28;20468;-50
2023/05/14 01:23:53;;;;;;;8.57;7.87;;;;;21.30;100703.00;;;;2076322;28;20225;-50
2023/05/14 01:24:54;;;;;;;8.10;7.40;;;;;21.30;100703.00;;;;2080529;28;20245;-50
2023/05/14 01:25:55;;;;;;;6.83;6.30;;;;;21.30;100706.00;;;;2078735;28;20236;-50
2023/05/14 01:26:57;;;;;;;8.30;7.50;;;;;21.30;100696.00;;;;2069458;28;20471;-50
2023/05/14 01:28:17;;;;;;;8.85;7.95;;;;;21.30;100706.00;;;;2077318;28;20224;-50
2023/05/14 01:29:19;;;;;;;8.45;7.75;;;;;21.30;100699.00;;;;2068953;28;20213;-50
2023/05/14 01:30:24;;;;;;;7.35;6.75;;;;;21.30;100700.00;;;;2074844;28;20213;-51
2023/05/14 01:31:26;;;;;;;8.00;7.20;;;;;21.30;100691.00;;;;2068184;28;20769;-50
2023/05/14 01:32:27;;;;;;;8.35;7.55;;;;;21.30;100694.00;;;;2052833;28;20277;-50
2023/05/14 01:33:27;;;;;;;7.60;6.90;;;;;21.30;100690.00;;;;2070790;28;20214;-50
2023/05/14 01:34:28;;;;;;;7.87;7.17;;;;;21.30;100700.00;;;;2067496;28;20211;-50
2023/05/14 01:35:28;;;;;;;8.33;7.63;;;;;21.30;100694.00;;;;2060559;28;21089;-51
2023/05/14 01:36:29;;;;;;;9.03;7.00;;;;;21.30;100699.00;;;;2063478;28;20249;-50
2023/05/14 01:37:30;;;;;;;7.50;6.90;;;;;21.30;100697.00;;;;2067957;28;20457;-50
2023/05/14 01:38:32;;;;;;;8.07;7.27;;;;;21.30;100698.00;;;;2076941;28;20479;-50
2023/05/14 01:39:36;;;;;;;7.50;6.90;;;;;21.30;100700.00;;;;2067897;28;20214;-51
2023/05/14 01:40:37;;;;;;;8.05;7.35;;;;;21.30;100698.00;;;;2072219;28;20214;-50
2023/05/14 01:41:38;;;;;;;7.60;6.90;;;;;21.30;100682.00;;;;2065724;28;20224;-50
2023/05/14 01:42:38;;;;;;;8.18;7.30;;;;;21.30;100693.00;;;;2068158;28;20214;-51
2023/05/14 01:43:38;;;;;;;7.27;6.60;;;;;21.30;100689.00;;;;2072211;28;20296;-50
2023/05/14 01:44:39;;;;;;;7.17;6.47;;;;;21.30;100681.00;;;;2070968;28;20530;-52
2023/05/14 01:45:39;;;;;;;7.53;6.93;;;;;21.20;100611.00;;;;2056916;28;20223;-52
2023/05/14 01:46:40;;;;;;;8.50;7.70;;;;;21.30;100694.00;;;;2049503;28;20222;-51
2023/05/14 01:47:40;;;;;;;7.53;6.90;;;;;21.30;100697.00;;;;2076224;28;20615;-50
2023/05/14 01:48:40;;;;;;;7.53;6.87;;;;;21.20;100690.00;;;;2076444;28;20735;-50
2023/05/14 01:49:41;;;;;;;7.40;6.80;;;;;21.30;100691.00;;;;2076642;28;20243;-50
2023/05/14 01:50:41;;;;;;;7.70;7.10;;;;;21.30;100692.00;;;;2076374;28;20220;-50
2023/05/14 01:51:41;;;;;;;7.50;6.90;;;;;21.30;100686.00;;;;2067783;28;20237;-51
2023/05/14 01:52:42;;;;;;;7.93;6.90;;;;;21.20;100692.00;;;;2080661;28;20277;-50
2023/05/14 01:53:42;;;;;;;7.00;6.40;;;;;21.30;100681.00;;;;2072533;28;20225;-50
2023/05/14 01:54:42;;;;;;;6.93;6.40;;;;;21.30;100692.00;;;;2076132;28;20567;-50
2023/05/14 01:55:43;;;;;;;6.87;6.37;;;;;21.20;100687.00;;;;2076025;28;20659;-50
2023/05/14 01:56:43;;;;;;;6.80;6.20;;;;;21.20;100677.00;;;;2067589;28;20728;-50
2023/05/14 01:57:43;;;;;;;7.27;6.60;;;;;21.20;100683.00;;;;2082025;28;20251;-50
2023/05/14 01:58:43;;;;;;;6.57;6.07;;;;;21.20;100690.00;;;;2076427;28;20237;-50
2023/05/14 01:59:44;;;;;;;6.97;6.37;;;;;21.20;100684.00;;;;2082441;28;20224;-50
2023/05/14 02:00:44;;;;;;;6.73;6.23;;;;;21.30;100680.00;;;;2078739;28;20237;-50
2023/05/14 02:01:45;;;;;;;7.47;6.77;;;;;21.20;100686.00;;;;2067314;28;20206;-51
2023/05/14 02:02:45;;;;;;;7.47;6.77;;;;;21.20;100681.00;;;;2075934;28;20213;-50
2023/05/14 02:03:45;;;;;;;6.80;6.20;;;;;21.20;100686.00;;;;2076773;28;20317;-50
2023/05/14 02:04:46;;;;;;;6.83;6.33;;;;;21.30;100675.00;;;;2077029;28;20458;-50
2023/05/14 02:05:46;;;;;;;7.00;6.37;;;;;21.20;100680.00;;;;2076233;28;20225;-51
2023/05/14 02:06:46;;;;;;;6.97;6.47;;;;;21.20;100686.00;;;;2067566;28;20217;-51
2023/05/14 02:07:47;;;;;;;6.90;6.30;;;;;21.20;100692.00;;;;2079199;28;20225;-50
2023/05/14 02:08:47;;;;;;;7.80;6.70;;;;;21.30;100691.00;;;;2079017;28;20268;-50
2023/05/14 02:09:47;;;;;;;6.47;5.97;;;;;21.20;100685.00;;;;2076886;28;20209;-50
2023/05/14 02:10:48;;;;;;;7.53;6.93;;;;;21.20;100684.00;;;;2075714;28;20212;-50
2023/05/14 02:11:48;;;;;;;7.30;6.40;;;;;21.20;100685.00;;;;2066333;28;20221;-50
2023/05/14 02:12:49;;;;;;;6.97;6.37;;;;;21.20;100679.00;;;;2075828;28;20300;-50
2023/05/14 02:13:49;;;;;;;8.00;7.30;;;;;21.20;100686.00;;;;2077654;28;20456;-50
2023/05/14 02:14:50;;;;;;;7.13;6.53;;;;;21.20;100690.00;;;;2078662;28;20308;-51
2023/05/14 02:15:50;;;;;;;7.27;6.60;;;;;21.20;100680.00;;;;2083003;28;20217;-50
2023/05/14 02:16:50;;;;;;;6.80;6.30;;;;;21.20;100679.00;;;;2069105;28;20236;-50
2023/05/14 02:17:51;;;;;;;6.87;6.27;;;;;21.20;100695.00;;;;2076337;28;20244;-50
2023/05/14 02:18:51;;;;;;;7.10;6.50;;;;;21.20;100696.00;;;;2076568;28;20701;-50
2023/05/14 02:19:51;;;;;;;6.90;6.30;;;;;21.20;100693.00;;;;2075943;28;21045;-50
2023/05/14 02:20:52;;;;;;;7.40;6.70;;;;;21.20;100676.00;;;;2076414;28;20744;-50
2023/05/14 02:21:52;;;;;;;7.60;6.90;;;;;21.20;100683.00;;;;2067918;28;20987;-50
2023/05/14 02:22:52;;;;;;;7.30;6.70;;;;;21.20;100691.00;;;;2076598;28;20749;-50
2023/05/14 02:23:53;;;;;;;6.93;6.33;;;;;21.20;100708.00;;;;2076914;28;20744;-50
2023/05/14 02:24:54;;;;;;;7.00;6.40;;;;;21.20;100691.00;;;;2075954;28;20225;-50
2023/05/14 02:25:55;;;;;;;6.50;5.90;;;;;21.20;100686.00;;;;2070276;28;20765;-50
2023/05/14 02:26:55;;;;;;;7.30;6.70;;;;;21.20;100695.00;;;;2064359;28;21003;-50
2023/05/14 02:27:55;;;;;;;6.57;5.97;;;;;21.20;100691.00;;;;2076910;28;20228;-50
2023/05/14 02:28:56;;;;;;;6.93;6.30;;;;;21.20;100685.00;;;;2075592;28;20228;-50
2023/05/14 02:29:59;;;;;;;6.83;6.23;;;;;21.20;100688.00;;;;2076767;28;20271;-50
2023/05/14 02:31:00;;;;;;;6.35;5.85;;;;;21.20;100685.00;;;;2083488;28;22441;-50
2023/05/14 02:32:00;;;;;;;7.03;6.27;;;;;21.20;100681.00;;;;2066685;28;20229;-50
2023/05/14 02:33:00;;;;;;;6.73;6.10;;;;;21.20;100695.00;;;;2076104;28;20456;-50
2023/05/14 02:34:01;;;;;;;7.00;6.40;;;;;21.20;100690.00;;;;2076118;28;20705;-50
2023/05/14 02:35:02;;;;;;;6.70;6.20;;;;;21.20;100687.00;;;;2076474;28;20274;-51
2023/05/14 02:36:02;;;;;;;6.70;6.20;;;;;21.10;100686.00;;;;2076321;28;20275;-50
2023/05/14 02:37:02;;;;;;;6.90;6.20;;;;;21.20;100687.00;;;;2067456;28;20217;-50
2023/05/14 02:38:03;;;;;;;6.80;6.20;;;;;21.20;100690.00;;;;2076895;28;20236;-51
2023/05/14 02:39:03;;;;;;;6.40;5.90;;;;;21.20;100691.00;;;;2075384;28;20229;-50
2023/05/14 02:40:04;;;;;;;6.67;6.17;;;;;21.20;100690.00;;;;2076463;28;20225;-50
2023/05/14 02:41:04;;;;;;;6.73;6.00;;;;;21.10;100676.00;;;;2079585;28;20232;-50
2023/05/14 02:42:05;;;;;;;7.07;6.47;;;;;21.20;100685.00;;;;2074951;28;20221;-50
2023/05/14 02:43:06;;;;;;;6.90;6.33;;;;;21.20;100676.00;;;;2077181;28;20224;-51
2023/05/14 02:44:06;;;;;;;6.87;6.33;;;;;21.20;100684.00;;;;2075142;28;20537;-51
2023/05/14 02:45:07;;;;;;;6.83;6.33;;;;;21.10;100698.00;;;;2068280;28;20222;-51
2023/05/14 02:46:07;;;;;;;6.80;6.20;;;;;21.20;100685.00;;;;2079240;28;20308;-50
2023/05/14 02:47:07;;;;;;;5.67;5.17;;;;;21.10;100678.00;;;;2067449;28;20225;-50
2023/05/14 02:48:08;;;;;;;6.67;6.17;;;;;21.10;100690.00;;;;2078496;28;20233;-50
2023/05/14 02:49:08;;;;;;;6.67;6.17;;;;;21.20;100684.00;;;;2076373;28;20352;-50
2023/05/14 02:50:09;;;;;;;6.10;5.60;;;;;21.20;100684.00;;;;2068110;28;20285;-50
2023/05/14 02:51:09;;;;;;;6.00;5.50;;;;;21.20;100636.00;;;;2075749;28;20226;-50
2023/05/14 02:52:09;;;;;;;6.70;6.10;;;;;21.10;100678.00;;;;2067414;28;20621;-50
2023/05/14 02:53:10;;;;;;;6.73;6.23;;;;;21.20;100679.00;;;;2076518;28;20859;-50
2023/05/14 02:54:10;;;;;;;6.60;5.70;;;;;21.20;100685.00;;;;2080794;28;20652;-54
2023/05/14 02:55:11;;;;;;;6.43;5.93;;;;;21.20;100679.00;;;;2076092;28;20221;-53
2023/05/14 02:56:11;;;;;;;6.33;5.83;;;;;21.20;100690.00;;;;2076956;28;20233;-52
2023/05/14 02:57:12;;;;;;;6.13;5.63;;;;;21.10;100680.00;;;;2067370;28;20228;-50
2023/05/14 02:58:12;;;;;;;6.70;6.10;;;;;21.10;100680.00;;;;2075789;28;20221;-51
2023/05/14 02:59:13;;;;;;;6.70;6.10;;;;;21.10;100678.00;;;;2076387;28;21252;-50
2023/05/14 03:00:13;;;;;;;5.97;5.47;;;;;21.10;100682.00;;;;2076595;28;20296;-50
2023/05/14 03:01:14;;;;;;;5.73;5.23;;;;;21.10;100689.00;;;;2076119;28;20225;-50
2023/05/14 03:02:14;;;;;;;6.20;5.70;;;;;21.10;100686.00;;;;2064797;28;20217;-50
2023/05/14 03:03:14;;;;;;;6.00;5.50;;;;;21.10;100680.00;;;;2084029;28;20220;-50
2023/05/14 03:04:15;;;;;;;6.60;6.00;;;;;21.10;100684.00;;;;2079077;28;20222;-50
2023/05/14 03:05:15;;;;;;;6.13;5.63;;;;;21.10;100681.00;;;;2070897;28;20224;-50
2023/05/14 03:06:15;;;;;;;6.30;5.80;;;;;21.10;100683.00;;;;2076321;28;20222;-51
2023/05/14 03:07:16;;;;;;;6.30;5.80;;;;;21.10;100681.00;;;;2066854;28;20276;-50
2023/05/14 03:08:16;;;;;;;5.80;5.37;;;;;21.10;100679.00;;;;2076974;28;20214;-50
2023/05/14 03:09:16;;;;;;;6.37;5.77;;;;;21.20;100679.00;;;;2076573;28;20228;-50
2023/05/14 03:10:17;;;;;;;6.50;6.00;;;;;21.10;100678.00;;;;2075487;28;20288;-50
2023/05/14 03:11:17;;;;;;;6.07;5.63;;;;;21.10;100673.00;;;;2077838;28;20224;-50
2023/05/14 03:12:18;;;;;;;6.00;5.60;;;;;21.10;100675.00;;;;2065832;28;20210;-51
2023/05/14 03:13:19;;;;;;;6.07;5.47;;;;;21.10;100680.00;;;;2077378;28;20236;-51
2023/05/14 03:14:19;;;;;;;6.80;5.90;;;;;21.10;100682.00;;;;2070890;28;20218;-50
2023/05/14 03:15:20;;;;;;;6.37;5.77;;;;;21.10;100683.00;;;;2074211;28;20624;-51
2023/05/14 03:16:20;;;;;;;5.60;4.80;;;;;21.10;100682.00;;;;2067966;28;20596;-51
2023/05/14 03:17:20;;;;;;;5.70;5.30;;;;;21.10;100683.00;;;;2067708;28;20221;-50
2023/05/14 03:18:21;;;;;;;6.40;5.83;;;;;21.10;100681.00;;;;2083341;28;20217;-50
2023/05/14 03:19:21;;;;;;;6.40;5.80;;;;;21.00;100680.00;;;;2074756;28;20221;-50
2023/05/14 03:20:23;;;;;;;6.30;5.80;;;;;21.10;100676.00;;;;2074214;28;20564;-51
2023/05/14 03:21:23;;;;;;;5.75;5.32;;;;;21.10;100689.00;;;;2069646;28;20222;-50
2023/05/14 03:22:24;;;;;;;6.00;5.50;;;;;21.10;100684.00;;;;2067359;28;20221;-50
2023/05/14 03:23:24;;;;;;;6.83;6.10;;;;;21.10;100679.00;;;;2077822;28;20227;-50
2023/05/14 03:24:24;;;;;;;6.20;5.73;;;;;21.10;100672.00;;;;2077502;28;20221;-51
2023/05/14 03:25:25;;;;;;;6.30;5.80;;;;;21.10;100683.00;;;;2080664;28;20710;-50
2023/05/14 03:26:25;;;;;;;6.47;5.87;;;;;21.10;100690.00;;;;2075608;28;21236;-51
2023/05/14 03:27:26;;;;;;;5.77;5.27;;;;;21.10;100684.00;;;;2066601;28;20276;-50
2023/05/14 03:28:26;;;;;;;6.27;5.77;;;;;21.10;100685.00;;;;2074568;28;20213;-51
2023/05/14 03:29:26;;;;;;;5.90;5.50;;;;;21.10;100689.00;;;;2079118;28;20224;-51
2023/05/14 03:30:27;;;;;;;6.03;5.53;;;;;21.10;100683.00;;;;2078887;28;20764;-50
2023/05/14 03:31:27;;;;;;;6.50;6.00;;;;;21.10;100689.00;;;;2071715;28;20217;-51
2023/05/14 03:32:27;;;;;;;6.27;5.77;;;;;21.00;100680.00;;;;2059884;28;20701;-50
2023/05/14 03:33:28;;;;;;;6.30;5.80;;;;;21.10;100685.00;;;;2075909;28;20221;-50
2023/05/14 03:34:28;;;;;;;6.00;5.50;;;;;21.00;100687.00;;;;2085324;28;20313;-50
2023/05/14 03:35:28;;;;;;;6.37;5.87;;;;;21.00;100682.00;;;;2076712;28;20232;-51
2023/05/14 03:36:29;;;;;;;5.43;5.03;;;;;21.00;100679.00;;;;2076650;28;20300;-51
2023/05/14 03:37:29;;;;;;;6.50;5.90;;;;;21.10;100674.00;;;;2071424;28;20222;-51
2023/05/14 03:38:29;;;;;;;6.70;6.20;;;;;21.10;100680.00;;;;2076731;28;20578;-51
2023/05/14 03:39:30;;;;;;;6.77;6.17;;;;;21.10;100685.00;;;;2073652;28;20241;-49
2023/05/14 03:40:30;;;;;;;5.70;5.20;;;;;21.10;100677.00;;;;2077813;28;20262;-51
2023/05/14 03:41:30;;;;;;;6.00;5.50;;;;;21.00;100684.00;;;;2074728;28;20214;-51
2023/05/14 03:42:31;;;;;;;6.43;5.93;;;;;21.00;100675.00;;;;2062206;28;20220;-51
2023/05/14 03:43:31;;;;;;;6.60;6.00;;;;;21.10;100674.00;;;;2076033;28;20217;-51
2023/05/14 03:44:31;;;;;;;5.70;5.00;;;;;21.10;100679.00;;;;2080711;28;20244;-51
2023/05/14 03:45:32;;;;;;;6.33;5.83;;;;;21.10;100678.00;;;;2081642;28;20225;-50
2023/05/14 03:46:32;;;;;;;6.20;5.70;;;;;21.10;100683.00;;;;2078629;28;20205;-50
2023/05/14 03:47:32;;;;;;;7.90;5.77;;;;;21.10;100676.00;;;;2075370;28;20231;-50
2023/05/14 03:48:33;;;;;;;5.97;5.47;;;;;21.00;100678.00;;;;2074953;28;20253;-51
2023/05/14 03:49:33;;;;;;;5.20;4.80;;;;;21.10;100675.00;;;;2072257;28;20252;-49
2023/05/14 03:50:34;;;;;;;6.30;5.80;;;;;21.00;100664.00;;;;2079517;28;20586;-51
2023/05/14 03:51:34;;;;;;;6.03;5.53;;;;;21.10;100668.00;;;;2071829;28;20762;-51
2023/05/14 03:52:35;;;;;;;6.07;5.57;;;;;21.00;100673.00;;;;2081329;28;20589;-50
2023/05/14 03:53:35;;;;;;;5.57;5.17;;;;;21.10;100677.00;;;;2074758;28;20271;-50
2023/05/14 03:54:37;;;;;;;6.30;5.70;;;;;21.10;100677.00;;;;2073060;28;20276;-50
2023/05/14 03:55:37;;;;;;;5.95;5.45;;;;;21.00;100663.00;;;;2080316;28;20220;-51
2023/05/14 03:56:37;;;;;;;6.63;6.07;;;;;21.00;100667.00;;;;2072030;28;20296;-50
2023/05/14 03:57:39;;;;;;;6.00;5.50;;;;;21.00;100670.00;;;;2081831;28;20228;-51
2023/05/14 03:58:39;;;;;;;6.72;5.15;;;;;21.00;100669.00;;;;2078707;28;20226;-49
2023/05/14 03:59:39;;;;;;;5.97;5.57;;;;;21.00;100669.00;;;;2075561;28;20245;-51
2023/05/14 04:00:41;;;;;;;6.13;5.63;;;;;21.00;100669.00;;;;2076629;28;20224;-51
2023/05/14 04:01:41;;;;;;;6.25;5.75;;;;;21.00;100667.00;;;;2066827;28;20229;-50
2023/05/14 04:02:42;;;;;;;6.00;5.50;;;;;21.00;100666.00;;;;2081985;28;20220;-50
2023/05/14 04:03:42;;;;;;;6.33;5.73;;;;;21.00;100670.00;;;;2082027;28;20581;-51
2023/05/14 04:04:42;;;;;;;6.07;5.57;;;;;21.00;100667.00;;;;2076873;28;20213;-51
2023/05/14 04:05:43;;;;;;;5.73;5.17;;;;;21.00;100656.00;;;;2077969;28;21111;-51
2023/05/14 04:06:44;;;;;;;5.40;5.00;;;;;20.90;100663.00;;;;2065807;28;20217;-50
2023/05/14 04:07:45;;;;;;;5.90;5.40;;;;;21.00;100658.00;;;;2082184;28;20251;-57
2023/05/14 04:08:45;;;;;;;6.00;5.50;;;;;21.00;100659.00;;;;2083053;28;20260;-51
2023/05/14 04:09:45;;;;;;;6.23;5.63;;;;;21.10;100662.00;;;;2077348;28;20213;-51
2023/05/14 04:10:46;;;;;;;6.43;5.87;;;;;21.10;100651.00;;;;2077503;28;20271;-50
2023/05/14 04:11:46;;;;;;;6.37;5.83;;;;;21.10;100659.00;;;;2067336;28;20305;-51
2023/05/14 04:12:46;;;;;;;5.27;4.87;;;;;21.00;100667.00;;;;2073110;28;20226;-51
2023/05/14 04:13:46;;;;;;;5.70;5.30;;;;;21.00;100668.00;;;;2074373;28;20217;-50
2023/05/14 04:14:47;;;;;;;5.73;5.33;;;;;21.00;100664.00;;;;2082821;28;20209;-50
2023/05/14 04:15:47;;;;;;;5.57;5.10;;;;;21.00;100657.00;;;;2074246;28;20296;-50
2023/05/14 04:16:48;;;;;;;5.03;4.63;;;;;21.00;100658.00;;;;2066548;28;20214;-51
2023/05/14 04:17:48;;;;;;;6.47;5.87;;;;;21.00;100652.00;;;;2077892;28;20242;-50
2023/05/14 04:18:48;;;;;;;6.20;5.70;;;;;21.00;100653.00;;;;2077514;28;20243;-50
2023/05/14 04:19:49;;;;;;;5.33;4.93;;;;;21.00;100652.00;;;;2082450;28;20209;-51
2023/05/14 04:20:49;;;;;;;6.33;5.83;;;;;21.00;100655.00;;;;2081068;28;20303;-50
2023/05/14 04:21:49;;;;;;;7.77;5.77;;;;;21.00;100655.00;;;;2066333;28;20217;-50
2023/05/14 04:22:49;;;;;;;5.73;5.27;;;;;21.00;100655.00;;;;2072460;28;20207;-51
2023/05/14 04:23:50;;;;;;;5.73;5.33;;;;;21.00;100653.00;;;;2075557;28;20295;-51
2023/05/14 04:24:51;;;;;;;6.47;5.97;;;;;21.00;100647.00;;;;2081279;28;20213;-50
2023/05/14 04:25:51;;;;;;;5.60;5.20;;;;;21.00;100653.00;;;;2078914;28;20302;-50
2023/05/14 04:26:52;;;;;;;6.00;5.50;;;;;21.00;100654.00;;;;2067631;28;20891;-51
2023/05/14 04:27:52;;;;;;;5.87;5.37;;;;;21.00;100655.00;;;;2077815;28;20697;-50
2023/05/14 04:28:52;;;;;;;6.10;5.50;;;;;21.00;100658.00;;;;2082289;28;20856;-51
2023/05/14 04:29:53;;;;;;;5.27;4.87;;;;;21.00;100655.00;;;;2080825;28;20713;-51
2023/05/14 04:30:53;;;;;;;5.67;5.20;;;;;21.00;100660.00;;;;2077002;28;20224;-50
2023/05/14 04:31:53;;;;;;;6.53;5.93;;;;;21.00;100652.00;;;;2072360;28;20232;-50
2023/05/14 04:32:54;;;;;;;6.70;6.00;;;;;21.00;100650.00;;;;2083651;28;21091;-50
2023/05/14 04:33:54;;;;;;;6.17;5.67;;;;;21.00;100651.00;;;;2083182;28;20225;-49
2023/05/14 04:34:55;;;;;;;5.80;5.40;;;;;21.00;100644.00;;;;2080160;28;20644;-49
2023/05/14 04:35:55;;;;;;;6.07;5.57;;;;;21.00;100645.00;;;;2077172;28;20822;-50
2023/05/14 04:36:55;;;;;;;5.33;4.93;;;;;21.00;100644.00;;;;2066664;28;20568;-50
2023/05/14 04:37:56;;;;;;;5.90;5.40;;;;;21.00;100643.00;;;;2078799;28;21345;-50
2023/05/14 04:38:56;;;;;;;5.67;5.17;;;;;21.00;100643.00;;;;2083347;28;20616;-50
2023/05/14 04:39:56;;;;;;;6.03;5.60;;;;;21.00;100647.00;;;;2079568;28;20624;-50
2023/05/14 04:40:57;;;;;;;8.10;5.40;;;;;21.00;100646.00;;;;2076823;28;20213;-51
2023/05/14 04:41:57;;;;;;;6.20;5.80;;;;;21.00;100632.00;;;;2073994;28;20225;-50
2023/05/14 04:42:57;;;;;;;6.07;5.53;;;;;21.00;100641.00;;;;2078346;28;20283;-50
2023/05/14 04:43:59;;;;;;;5.80;5.30;;;;;21.00;100640.00;;;;2077717;28;20214;-50
2023/05/14 04:44:59;;;;;;;6.30;5.78;;;;;21.00;100638.00;;;;2078816;28;20214;-50
2023/05/14 04:46:00;;;;;;;5.87;5.30;;;;;21.00;100638.00;;;;2073267;28;20225;-50
2023/05/14 04:47:01;;;;;;;5.30;4.90;;;;;21.00;100637.00;;;;2063071;28;20548;-51
2023/05/14 04:48:06;;;;;;;5.80;5.40;;;;;21.00;100639.00;;;;2078496;28;20555;-51
2023/05/14 04:49:07;;;;;;;5.80;5.40;;;;;21.00;100643.00;;;;2083139;28;20482;-50
2023/05/14 04:50:08;;;;;;;5.67;5.23;;;;;21.00;100649.00;;;;2075463;28;20647;-50
2023/05/14 04:51:08;;;;;;;6.47;5.95;;;;;21.00;100644.00;;;;2077638;28;20272;-50
2023/05/14 04:52:09;;;;;;;6.40;5.80;;;;;21.00;100640.00;;;;2071324;28;20217;-50
2023/05/14 04:53:10;;;;;;;6.37;5.77;;;;;21.00;100643.00;;;;2070036;28;20288;-50
2023/05/14 04:54:10;;;;;;;5.80;5.40;;;;;21.00;100588.00;;;;2081899;28;20714;-50
2023/05/14 04:55:10;;;;;;;8.90;4.87;;;;;21.00;100644.00;;;;2077068;28;20213;-50
2023/05/14 04:56:11;;;;;;;6.43;5.87;;;;;21.00;100649.00;;;;2077620;28;20268;-50
2023/05/14 04:57:11;;;;;;;9.87;4.97;;;;;21.00;100647.00;;;;2063637;28;20222;-50
2023/05/14 04:58:11;;;;;;;7.17;5.70;;;;;21.00;100651.00;;;;2069811;28;20253;-51
2023/05/14 04:59:12;;;;;;;5.80;5.40;;;;;21.00;100640.00;;;;2075805;28;20221;-50
2023/05/14 05:00:12;;;;;;;5.80;5.40;;;;;21.10;100671.00;;;;2085198;28;20642;-50